Date,TemperatureHighF,TemperatureAvgF,TemperatureLowF,DewpointHighF,DewpointAvgF,DewpointLowF,HumidityHigh,HumidityAvg,HumidityLow,PressureMaxIn,PressureMinIn,WindSpeedMaxMPH,WindSpeedAvgMPH,GustSpeedMaxMPH,PrecipitationSumIn
2013-1-1,45.8,38.1,31.2,43.4,35.8,22.4,98,91,68,30.19,29.99,7,1,9,0.22
2013-1-2,39.4,33.3,30.4,38.8,32.3,29.6,98,96,92,30.15,29.95,5,1,8,0.06
2013-1-3,33.7,29.1,24.3,32.9,27.4,20.7,97,93,84,30.32,30.12,5,1,11,0.01
2013-1-4,32.7,24.5,20.3,21.9,19.4,17.4,89,81,62,30.44,30.31,9,2,12,0.00
2013-1-5,49.6,31.0,16.3,29.9,20.5,9.2,93,70,20,30.50,30.28,6,0,11,0.00
2013-1-6,38.9,32.6,30.5,33.4,29.3,25.4,96,88,74,30.30,30.10,7,1,13,0.01
2013-1-7,49.2,33.1,24.3,27.9,23.9,14.1,91,72,25,30.45,30.25,8,1,11,0.00
2013-1-8,52.0,36.9,27.0,32.7,23.9,13.6,95,62,28,30.47,30.36,7,1,13,0.00
2013-1-9,55.5,44.7,31.9,50.2,42.4,30.9,98,92,75,30.50,30.41,6,1,9,0.00
2013-1-10,58.6,50.0,41.9,52.2,46.7,39.2,98,89,72,30.50,30.29,13,2,20,0.00
2013-1-11,56.3,51.2,45.2,52.2,48.7,39.3,95,91,75,30.30,30.09,14,2,26,0.03
2013-1-12,67.7,58.7,52.0,57.2,54.0,50.0,96,85,65,30.16,30.01,8,1,11,0.00
2013-1-13,64.2,57.9,53.6,54.6,51.8,49.7,91,81,60,30.05,29.95,10,2,14,0.00
2013-1-14,56.3,51.0,41.9,54.3,50.3,41.1,98,97,93,30.16,29.98,5,1,9,1.86
2013-1-15,50.4,48.2,42.4,49.9,47.5,41.9,98,97,96,30.12,29.97,8,1,11,1.22
2013-1-16,54.7,49.5,47.1,52.1,48.3,46.5,98,96,79,30.01,29.90,7,1,16,0.32
2013-1-17,47.1,37.3,25.9,46.6,36.7,24.7,98,98,95,30.21,29.83,7,0,7,1.70
2013-1-18,34.5,25.9,21.1,30.2,23.6,19.4,96,91,71,30.56,30.23,0,0,0,0.01
2013-1-19,46.2,29.2,20.0,33.2,24.9,18.6,96,86,38,30.54,30.24,5,0,5,0.15
2013-1-20,42.5,34.6,26.5,32.0,27.4,20.9,96,76,59,30.24,30.11,11,2,17,0.01
2013-1-21,39.2,29.7,20.5,28.1,20.6,5.6,94,71,45,30.14,30.01,11,2,22,0.01
2013-1-22,20.8,15.4,9.9,7.5,0.1,-5.2,66,51,36,30.33,30.04,15,4,24,0.00
2013-1-23,33.5,22.3,14.7,26.8,10.8,-3.5,76,61,43,30.42,30.16,10,2,16,0.00
2013-1-24,34.9,23.1,13.4,28.7,13.0,2.0,83,66,44,30.45,30.09,13,3,21,0.00
2013-1-25,34.7,23.5,14.7,33.4,18.0,2.2,97,80,54,30.47,30.14,14,3,25,0.06
2013-1-26,33.9,27.8,22.3,29.8,25.6,20.8,97,91,77,30.41,30.16,8,2,15,0.01
2013-1-27,44.3,30.3,18.3,31.1,24.3,16.4,94,80,51,30.53,30.41,4,1,6,0.15
2013-1-28,59.6,44.1,33.2,44.8,38.2,30.0,97,81,56,30.44,30.24,6,1,13,0.12
2013-1-29,65.4,50.6,35.2,53.7,43.9,33.6,95,80,43,30.26,29.98,9,1,13,0.00
2013-1-30,58.2,53.0,39.5,56.0,51.0,35.3,98,93,84,29.98,29.39,13,3,24,2.64
2013-1-31,39.6,26.0,21.8,36.1,21.6,17.4,95,83,70,30.02,29.40,16,3,27,0.00
2013-2-1,32.9,16.8,9.6,26.6,10.5,4.4,94,76,61,30.42,29.95,11,3,26,0.00
2013-2-2,35.1,21.9,10.4,28.7,16.8,5.6,95,81,51,30.43,30.14,6,1,14,0.00
2013-2-3,28.3,25.4,20.7,26.1,22.0,17.2,94,87,83,30.11,29.97,0,0,0,0.00
2013-2-4,43.6,28.3,14.7,32.5,21.7,12.6,92,78,47,30.20,30.04,6,1,8,0.00
2013-2-5,42.2,35.3,29.1,35.5,28.9,22.5,95,78,56,30.04,29.96,8,1,14,0.00
2013-2-6,47.4,36.4,28.4,34.2,25.5,12.9,88,68,25,30.29,30.03,8,2,12,0.00
2013-2-7,46.1,36.7,28.7,36.6,30.6,22.3,96,79,53,30.30,30.01,6,2,13,0.32
2013-2-8,41.4,35.7,27.2,39.0,33.2,23.7,98,91,66,30.17,29.92,12,2,19,0.15
2013-2-9,50.7,31.3,21.7,24.1,18.7,4.6,88,66,17,30.40,30.16,10,2,18,0.00
2013-2-10,43.5,38.3,27.3,40.2,23.0,12.5,97,57,32,30.41,30.14,20,4,23,0.21
2013-2-11,53.3,45.8,39.4,49.8,40.9,29.0,98,84,60,30.15,29.99,10,2,17,0.01
2013-2-12,48.2,37.8,31.0,32.8,24.1,16.5,95,60,29,30.13,29.93,9,2,15,0.06
2013-2-13,40.9,35.0,28.6,39.3,33.4,26.9,97,94,88,29.94,29.63,9,2,16,0.25
2013-2-14,45.2,32.9,24.5,27.4,24.1,18.9,93,72,35,30.09,29.89,6,2,16,0.01
2013-2-15,48.4,33.5,24.6,36.2,27.9,23.1,95,82,42,30.14,29.99,6,1,14,0.05
2013-2-16,26.6,22.4,15.9,24.0,18.8,9.4,91,86,69,30.05,29.88,16,2,21,0.00
2013-2-17,25.7,17.6,11.9,10.8,7.6,4.0,84,65,44,30.34,30.01,17,4,21,0.00
2013-2-18,47.5,30.1,14.6,30.5,18.2,6.3,85,62,43,30.46,30.17,11,2,19,0.09
2013-2-19,41.0,34.5,26.5,36.4,25.0,10.6,94,70,46,30.18,29.89,19,4,22,0.05
2013-2-20,35.3,26.3,20.5,13.9,10.0,4.2,69,51,29,30.23,30.02,12,3,19,0.00
2013-2-21,53.8,33.9,17.3,31.5,11.4,-10.2,93,46,9,30.30,30.16,5,1,8,0.16
2013-2-22,42.9,36.7,31.2,41.9,34.2,26.8,97,91,74,30.25,30.07,13,3,19,0.24
2013-2-23,54.6,44.9,36.2,46.9,42.0,34.1,98,90,72,30.07,29.81,7,1,8,0.09
2013-2-24,45.2,37.9,28.2,38.9,27.8,21.3,93,69,41,30.06,29.83,12,2,23,0.00
2013-2-25,46.4,34.1,25.6,32.3,24.7,20.0,86,70,46,30.15,30.02,8,1,11,0.00
2013-2-26,43.4,38.4,33.3,41.5,36.3,28.6,97,92,77,30.02,29.52,13,3,25,0.60
2013-2-27,47.2,34.7,30.1,34.4,29.1,25.5,95,81,50,29.82,29.63,13,2,24,0.00
2013-2-28,30.7,26.3,23.8,27.5,23.1,21.3,95,88,81,29.94,29.72,9,3,18,0.00
2013-3-1,29.7,26.4,23.8,26.8,24.7,22.3,95,93,88,29.99,29.91,12,2,16,0.00
2013-3-2,28.6,24.7,17.8,25.4,22.2,15.4,94,90,81,30.00,29.89,7,2,16,0.00
2013-3-3,23.4,18.5,15.2,16.9,14.4,11.7,91,84,72,30.11,29.98,8,2,16,0.00
2013-3-4,44.3,27.5,17.5,24.6,15.0,6.8,85,63,22,30.24,30.11,8,2,18,0.12
2013-3-5,43.1,35.0,27.1,42.0,32.7,24.0,97,91,75,30.14,29.65,11,1,19,0.00
2013-3-6,27.0,21.8,19.2,25.5,20.3,17.5,95,94,90,30.22,29.66,13,4,20,0.00
2013-3-7,26.1,23.1,21.3,24.6,21.5,19.8,95,93,90,30.40,30.23,7,2,14,0.00
2013-3-8,39.0,27.4,21.2,27.4,22.2,18.7,91,81,57,30.44,30.34,10,2,12,0.01
2013-3-9,63.3,39.0,21.0,32.5,24.4,13.4,93,64,18,30.42,30.29,4,1,8,0.00
2013-3-10,57.0,46.5,33.9,33.6,30.4,26.2,78,55,38,30.31,30.13,13,2,18,0.00
2013-3-11,49.6,46.2,43.5,46.6,42.0,31.4,96,86,54,30.16,29.83,15,4,24,0.15
2013-3-12,48.4,37.6,28.9,47.3,34.9,26.9,97,90,72,30.05,29.77,8,2,14,0.47
2013-3-13,33.4,28.6,21.4,29.4,21.8,13.6,94,76,56,30.21,30.03,14,3,19,0.01
2013-3-14,36.1,25.2,17.1,17.2,13.8,10.5,80,63,38,30.36,30.19,12,3,19,0.01
2013-3-15,57.8,42.2,27.7,40.6,28.4,15.2,84,59,34,30.29,29.95,10,2,18,0.00
2013-3-16,67.6,57.7,51.3,48.8,44.0,38.8,75,61,46,29.97,29.70,12,3,20,0.01
2013-3-17,65.1,53.9,42.8,50.0,45.8,39.8,89,75,47,29.94,29.80,10,1,11,0.00
2013-3-18,46.3,42.5,39.7,42.8,39.9,37.1,97,90,83,29.96,29.80,11,2,17,0.54
2013-3-19,47.7,39.1,32.0,43.2,27.2,8.3,98,67,27,30.07,29.84,12,3,22,0.12
2013-3-20,44.4,32.9,23.9,26.5,12.2,5.6,93,45,21,30.11,29.87,8,2,17,0.00
2013-3-21,26.7,20.0,14.7,22.0,10.2,6.4,92,66,49,30.06,29.80,11,3,22,0.00
2013-3-22,40.3,26.8,14.7,27.6,12.8,7.7,78,58,27,30.14,30.05,7,1,10,0.02
2013-3-23,46.7,37.9,33.4,39.1,33.4,27.3,93,84,73,30.11,29.89,5,0,8,0.00
2013-3-24,46.4,37.3,31.8,42.8,34.7,30.6,97,90,76,29.92,29.46,11,1,12,0.63
2013-3-25,32.1,25.3,22.0,31.1,23.4,19.9,96,92,88,29.91,29.51,11,2,19,0.00
2013-3-26,27.3,24.0,21.5,24.6,21.9,19.8,94,92,88,30.25,29.91,9,2,23,0.00
2013-3-27,32.1,25.4,21.8,22.8,20.6,18.2,94,82,68,30.36,30.23,8,2,13,0.00
2013-3-28,40.8,29.5,20.0,24.5,20.3,15.3,87,69,47,30.38,30.31,10,2,16,0.23
2013-3-29,45.4,31.6,19.0,31.8,22.6,14.4,93,73,32,30.41,30.30,9,1,13,0.00
2013-3-30,55.3,41.7,31.0,37.7,33.0,29.7,96,74,44,30.31,30.08,6,1,8,0.00
2013-3-31,52.5,45.8,40.8,47.0,43.1,35.7,97,90,76,30.07,29.83,6,1,14,0.51
2013-4-1,50.1,43.5,33.4,44.3,37.5,30.0,98,81,61,29.99,29.86,9,2,16,0.00
2013-4-2,47.4,36.2,28.1,30.8,21.8,14.4,80,58,32,30.19,29.99,8,2,14,0.00
2013-4-3,51.6,36.4,23.4,24.4,17.4,12.5,78,49,21,30.31,30.18,9,1,11,0.00
2013-4-4,38.8,34.2,30.4,34.5,24.3,10.7,97,71,33,30.29,29.98,8,1,12,0.53
2013-4-5,50.6,38.7,33.2,37.7,34.6,32.4,98,87,57,30.09,29.97,11,2,15,0.07
2013-4-10,75.2,66.3,58.7,54.7,53.0,51.5,77,63,49,29.91,29.90,5,1,8,0.00
2013-4-11,73.7,61.5,50.9,58.8,52.0,48.1,95,73,46,29.92,29.64,10,2,19,0.60
2013-4-12,60.3,53.9,44.8,58.3,47.4,36.0,97,80,42,29.84,29.55,11,2,18,1.13
2013-4-13,62.2,49.5,40.8,36.6,34.1,28.5,78,58,30,30.06,29.83,10,2,15,0.00
2013-4-14,65.6,50.5,33.9,45.7,36.5,31.3,90,63,33,30.11,29.97,12,2,16,0.01
2013-4-15,62.6,54.0,47.6,52.7,48.9,44.5,92,83,69,30.17,29.95,7,1,15,0.02
2013-4-16,76.1,62.0,54.3,57.4,52.6,50.5,90,73,43,30.24,30.13,7,2,11,0.00
2013-4-17,65.9,57.7,54.0,58.5,54.7,51.5,97,90,68,30.22,30.09,7,1,17,0.39
2013-4-18,67.5,61.4,54.4,56.8,54.7,51.5,94,79,59,30.11,29.88,17,3,20,0.00
2013-4-19,62.4,54.1,37.8,58.5,51.5,34.3,97,91,83,29.89,29.66,16,4,23,0.78
2013-4-20,51.5,39.4,29.2,33.9,29.1,24.8,88,69,42,30.34,29.88,9,3,17,0.00
2013-4-21,56.9,41.6,28.9,33.6,29.0,25.5,93,65,35,30.49,30.34,6,1,11,0.00
2013-4-22,64.2,46.8,37.0,37.1,32.6,26.0,85,61,31,30.43,30.21,7,1,10,0.00
2013-4-23,70.6,50.4,30.8,43.9,35.2,24.7,87,59,30,30.26,30.09,6,1,9,0.00
2013-4-24,71.2,55.0,40.8,55.1,46.5,38.5,96,76,44,30.11,29.94,10,2,16,0.11
2013-4-25,60.3,44.9,33.2,43.0,31.7,18.3,96,67,20,30.35,30.07,9,2,12,0.01
2013-4-26,67.3,47.4,28.9,38.4,31.8,26.8,92,60,29,30.45,30.33,8,1,9,0.00
2013-4-27,55.4,48.9,45.2,47.8,43.9,37.2,93,83,62,30.40,30.20,6,1,10,0.09
2013-4-28,50.9,47.4,42.7,50.1,44.3,36.7,97,89,69,30.21,29.99,11,2,19,0.89
2013-4-29,66.5,55.1,48.1,52.8,49.1,46.8,97,82,57,30.05,29.94,5,1,10,0.00
2013-4-30,73.1,57.3,50.5,54.5,51.9,48.2,98,84,46,30.12,29.96,4,0,6,0.05
2013-5-1,60.4,54.5,50.4,51.6,49.1,47.0,91,82,69,30.24,30.11,6,1,11,0.00
2013-5-2,61.5,53.4,49.1,52.6,49.4,46.8,95,87,72,30.25,30.18,7,2,15,0.01
2013-5-3,58.2,51.1,46.8,47.6,44.9,40.7,94,80,57,30.20,30.06,13,2,17,0.00
2013-5-4,51.3,45.8,40.2,44.4,40.9,30.8,95,83,68,30.07,29.96,14,2,18,0.03
2013-5-5,48.8,45.5,41.8,47.2,44.1,40.4,96,95,93,30.02,29.82,8,2,30,3.19
2013-5-6,62.5,50.1,41.1,49.3,45.6,38.8,97,86,45,29.89,29.76,9,2,21,2.09
2013-5-7,58.5,46.1,37.6,48.7,42.9,36.8,98,89,66,29.96,29.86,9,1,11,0.48
2013-5-8,56.4,51.0,46.8,51.9,49.1,46.0,98,93,81,30.05,29.93,6,1,13,0.14
2013-5-9,72.8,57.8,49.8,54.6,50.7,47.9,96,79,43,30.11,30.00,6,1,11,0.00
2013-5-10,73.9,56.2,44.5,59.3,52.3,43.4,98,89,48,30.10,29.94,6,1,9,0.74
2013-5-11,60.9,56.3,51.3,58.2,54.3,48.8,98,93,83,29.97,29.82,6,1,9,0.22
2013-5-12,54.8,47.4,40.4,48.8,39.0,30.6,96,74,45,30.07,29.85,11,2,19,0.02
2013-5-13,45.9,38.1,34.7,31.7,29.4,26.6,82,71,47,30.20,30.07,12,1,12,0.00
2013-5-14,72.4,61.7,47.3,48.6,41.3,31.0,82,49,33,30.28,30.08,7,2,13,0.00
2013-5-15,81.2,68.9,50.3,56.8,52.0,45.7,84,57,34,30.11,29.95,10,2,14,0.00
2013-5-16,70.8,62.2,50.9,54.5,49.8,45.7,87,65,46,30.02,29.92,6,1,12,0.00
2013-5-17,72.0,58.5,46.9,61.6,53.4,44.3,97,84,58,30.10,30.00,5,1,6,0.43
2013-5-18,61.1,58.1,55.3,58.5,56.8,54.5,98,95,89,30.09,30.03,5,1,7,0.37
2013-5-19,71.8,60.6,54.1,63.1,58.6,53.3,98,93,72,30.08,29.98,5,0,7,0.35
2013-5-20,78.0,62.5,54.2,65.1,58.4,53.6,99,88,55,30.13,29.99,4,0,15,0.52
2013-5-21,85.6,65.9,54.8,63.8,59.3,54.2,99,82,43,30.04,29.88,5,1,12,0.23
2013-5-22,74.6,60.6,53.8,64.1,57.6,53.2,99,91,61,29.96,29.86,7,1,9,0.28
2013-5-23,73.6,59.8,53.7,59.2,55.3,51.8,99,87,48,29.93,29.83,6,1,12,0.09
2013-5-24,57.4,50.4,42.3,52.1,42.7,35.9,96,77,49,30.22,29.87,9,2,27,0.16
2013-5-25,65.5,50.1,36.8,44.1,37.3,28.8,93,65,31,30.36,30.22,8,1,13,0.00
2013-5-26,68.0,53.6,44.3,48.5,43.0,36.1,91,70,40,30.27,30.19,6,1,11,0.00
2013-5-27,75.3,59.7,43.3,60.4,51.6,42.0,96,76,53,30.27,30.12,4,1,9,0.00
2013-5-28,77.4,64.1,53.7,60.0,56.1,51.9,95,77,48,30.18,30.08,6,1,9,0.00
2013-5-29,77.7,64.8,52.5,61.4,56.4,51.4,97,77,46,30.18,30.10,7,1,11,0.00
2013-5-30,77.0,63.3,52.9,60.1,56.3,51.8,98,80,52,30.22,30.12,6,1,8,0.00
2013-5-31,77.3,65.6,55.6,60.3,57.4,54.1,97,76,52,30.18,30.07,6,1,10,0.00
2013-6-1,79.6,68.8,59.8,64.2,59.5,57.4,95,74,52,30.08,29.95,7,2,11,0.00
2013-6-2,68.2,62.9,59.5,63.9,60.6,58.2,98,93,80,29.98,29.84,5,1,11,0.80
2013-6-3,74.6,62.6,55.1,62.8,58.2,53.8,98,87,55,29.97,29.84,7,1,11,0.00
2013-6-4,72.3,60.8,53.4,61.3,56.5,52.6,98,87,64,30.08,29.95,4,0,5,0.00
2013-6-5,73.0,63.6,54.0,62.7,58.9,52.9,98,85,67,30.07,29.94,6,1,8,0.08
2013-6-6,74.6,64.8,59.2,65.5,61.4,58.3,97,89,70,29.95,29.73,4,1,6,0.99
2013-6-7,68.6,61.8,59.2,64.3,60.3,58.3,98,95,83,29.82,29.66,5,0,10,0.50
2013-6-8,77.0,63.3,55.4,61.2,58.2,54.8,98,85,53,30.06,29.81,4,0,7,0.45
2013-6-9,76.0,63.5,56.8,64.4,60.4,56.0,99,91,65,30.12,30.00,5,1,9,0.47
2013-6-10,74.6,65.0,57.9,65.0,60.4,53.9,98,86,53,30.00,29.85,6,1,11,0.40
2013-6-11,75.2,63.5,57.5,62.5,58.7,56.4,97,85,61,30.00,29.89,5,1,10,0.18
2013-6-12,84.0,70.2,57.5,70.9,64.5,56.5,98,83,59,30.01,29.89,4,1,12,0.00
2013-6-13,78.2,66.7,58.7,67.1,62.3,54.9,97,87,65,29.89,29.66,7,1,24,0.95
2013-6-14,70.9,60.3,51.1,56.1,53.2,49.2,94,79,54,30.07,29.78,6,1,14,0.00
2013-6-15,79.1,58.8,45.0,59.2,51.8,44.0,98,81,44,30.15,30.05,10,1,10,0.00
2013-6-16,79.6,64.6,53.3,63.9,58.6,52.2,97,82,54,30.12,29.99,4,0,9,0.00
2013-6-17,75.0,65.6,60.2,66.5,62.9,59.3,98,91,72,30.02,29.90,4,0,6,0.23
2013-6-18,69.1,63.4,59.3,65.1,61.9,58.4,98,95,86,29.93,29.78,4,0,9,0.59
2013-6-19,78.4,62.7,54.5,64.7,58.7,53.9,98,88,56,30.11,29.90,4,0,6,0.00
2013-6-20,72.8,62.3,52.1,62.3,57.9,51.6,99,86,66,30.22,30.11,4,0,7,0.00
2013-6-21,79.7,64.0,53.9,62.8,57.3,53.1,98,82,46,30.24,30.15,3,0,7,0.00
2013-6-22,84.2,63.4,49.2,62.4,55.0,48.4,98,78,34,30.21,30.09,3,0,6,0.00
2013-6-23,76.8,64.6,54.5,65.1,58.8,53.4,98,83,57,30.19,30.09,3,0,5,0.00
2013-6-24,81.7,65.8,57.7,69.7,62.4,56.6,98,90,60,30.19,30.05,3,0,7,1.45
2013-6-25,81.6,65.7,58.2,69.1,63.1,57.6,99,92,60,30.13,29.99,0,0,0,0.09
2013-6-26,78.9,67.1,59.0,69.6,64.0,58.4,99,90,70,30.03,29.88,0,0,0,0.00
2013-6-27,72.4,64.7,59.6,68.3,63.3,58.7,98,95,87,29.91,29.74,5,0,7,0.44
2013-6-28,76.0,67.5,61.0,67.6,64.5,59.7,98,91,70,29.78,29.60,8,1,12,0.15
2013-6-29,83.0,66.0,57.1,61.7,58.1,51.5,99,79,36,29.69,29.61,1,0,9,0.00
2013-6-30,79.4,63.7,53.3,64.1,57.4,52.2,98,82,46,29.79,29.68,0,0,0,1.03
2013-7-1,74.7,63.8,59.9,65.9,61.3,59.0,98,92,68,29.93,29.77,0,0,0,0.53
2013-7-2,72.8,65.3,60.8,65.7,62.2,60.0,98,90,72,30.09,29.91,0,0,0,0.20
2013-7-3,69.4,63.0,57.7,67.0,62.1,57.4,99,97,91,30.20,30.06,0,0,0,3.75
2013-7-4,69.6,62.9,57.4,67.3,62.2,57.1,99,98,87,30.22,30.15,6,0,9,0.87
2013-7-5,79.1,67.3,62.5,68.2,63.3,60.9,98,88,66,30.20,30.14,11,2,13,0.09
2013-7-6,75.0,66.9,63.3,67.2,64.1,61.9,98,91,76,30.17,30.07,12,1,12,0.56
2013-7-7,74.8,66.3,63.2,69.3,64.8,62.6,98,95,77,30.13,30.05,7,0,7,0.84
2013-7-8,81.0,68.6,62.1,68.1,63.4,60.8,99,85,54,30.17,30.09,7,0,7,0.00
2013-7-9,84.8,69.3,59.4,69.4,63.6,58.8,99,84,53,30.14,30.02,6,0,6,0.00
2013-7-10,77.5,66.6,60.5,70.5,64.7,59.9,98,94,75,30.08,29.92,5,0,5,1.46
2013-7-11,74.8,67.3,62.3,68.7,64.7,62.0,99,92,76,29.94,29.85,5,0,5,0.01
2013-7-12,79.7,66.5,58.2,65.8,61.5,56.8,98,86,55,29.99,29.86,8,1,8,0.49
2013-7-13,70.6,64.1,58.5,64.0,61.0,57.6,98,90,77,30.09,29.96,8,1,8,0.07
2013-7-14,73.3,66.2,63.7,67.0,64.4,62.5,98,94,78,30.25,30.06,8,1,9,0.89
2013-7-15,80.0,68.6,61.5,66.8,62.9,60.3,97,83,57,30.31,30.23,7,0,7,0.00
2013-7-16,74.9,65.0,55.9,66.7,62.3,55.3,99,91,74,30.33,30.24,5,0,5,0.53
2013-7-17,81.0,65.9,60.2,71.9,64.3,59.9,99,95,68,30.29,30.17,10,0,10,1.24
2013-7-18,85.0,68.9,58.4,70.4,65.2,58.1,99,89,54,30.21,30.05,4,0,5,0.00
2013-7-19,78.1,68.4,61.9,70.9,66.3,61.5,99,93,72,30.10,29.96,5,0,6,0.34
2013-7-20,75.8,67.8,63.5,70.1,66.2,63.2,99,95,79,30.01,29.89,7,0,7,0.45
2013-7-21,79.5,67.1,62.1,69.7,65.2,61.5,99,94,68,29.99,29.90,8,0,8,0.36
2013-7-22,78.3,66.6,59.9,70.7,64.9,59.3,99,94,76,29.97,29.79,6,0,6,1.01
2013-7-23,79.5,67.8,63.1,66.8,64.0,62.4,98,89,61,29.86,29.76,9,1,9,0.13
2013-7-24,81.0,69.6,62.6,68.5,64.7,61.4,97,86,58,29.83,29.75,6,0,6,0.00
2013-7-25,79.3,66.2,56.6,63.8,60.2,55.1,98,83,52,30.02,29.82,8,0,8,0.00
2013-7-26,82.3,64.4,52.0,65.9,59.4,51.2,99,85,56,30.06,29.99,7,0,7,0.00
2013-7-27,77.5,65.6,61.5,66.6,62.9,60.8,98,92,67,30.01,29.85,7,0,7,1.80
2013-7-28,76.8,64.5,57.9,64.5,60.8,56.9,99,89,60,30.02,29.88,8,0,8,0.44
2013-7-29,77.8,61.0,49.4,62.3,54.8,47.1,99,82,52,30.21,30.01,9,-3,9,0.00
2013-7-30,74.6,62.0,50.8,65.3,57.7,49.7,98,87,56,30.23,30.14,5,0,5,0.00
2013-7-31,67.3,62.7,58.5,64.4,61.2,57.5,98,95,89,30.17,29.96,7,0,7,0.33
2013-8-1,78.6,66.6,61.5,66.2,63.6,60.7,99,91,64,29.96,29.88,10,0,10,0.11
2013-8-2,78.2,65.3,54.8,65.7,60.7,54.2,99,87,60,30.03,29.92,5,0,5,0.01
2013-8-3,77.5,66.8,59.8,65.2,62.2,58.9,99,86,56,30.02,29.94,7,0,7,0.00
2013-8-4,76.3,67.3,59.4,64.7,61.2,56.9,97,82,52,30.02,29.91,13,1,13,0.03
2013-8-5,80.3,64.8,54.3,65.7,59.6,53.5,97,85,55,30.05,29.95,8,0,8,0.00
2013-8-6,78.5,67.0,60.0,67.0,62.4,59.0,98,86,63,29.99,29.93,5,0,5,0.01
2013-8-7,70.3,65.8,62.5,66.8,64.1,61.4,98,94,86,30.02,29.97,9,1,9,0.16
2013-8-8,73.8,67.2,61.3,71.0,65.8,60.7,99,95,81,30.03,29.97,4,0,4,0.29
2013-8-9,82.9,69.3,62.7,72.2,66.5,62.4,99,92,67,30.05,29.96,9,0,9,0.00
2013-8-10,80.6,67.5,62.3,73.7,65.5,61.7,99,94,71,30.10,30.02,4,0,10,1.90
2013-8-11,82.3,68.0,59.3,70.8,64.8,58.9,99,91,64,30.12,30.03,8,0,8,0.01
2013-8-12,81.0,70.1,64.4,70.8,66.6,63.5,98,90,67,30.06,29.92,6,0,6,0.03
2013-8-13,73.4,66.0,62.5,68.3,64.3,61.0,99,94,81,29.93,29.80,12,0,12,0.38
2013-8-14,69.3,61.0,52.2,61.2,56.1,51.1,97,85,60,30.07,29.86,9,1,9,0.00
2013-8-15,71.4,56.4,48.5,59.6,52.7,47.7,98,88,62,30.15,30.05,5,0,5,0.00
2013-8-16,71.2,58.0,47.4,58.2,52.6,46.6,98,84,58,30.16,30.08,6,0,6,0.00
2013-8-17,66.8,59.4,50.1,60.4,55.5,47.4,97,87,72,30.16,30.08,7,1,7,0.03
2013-8-18,78.4,63.5,58.0,65.5,60.9,57.4,99,92,61,30.19,30.10,5,0,5,0.43
2013-8-19,74.3,64.7,59.6,67.1,62.3,59.0,99,93,74,30.16,30.05,4,0,4,0.23
2013-8-20,75.2,64.1,57.1,70.2,62.3,56.5,99,94,76,30.17,30.08,5,0,5,0.22
2013-8-21,76.2,65.4,59.6,67.7,63.3,59.2,99,93,73,30.22,30.08,4,0,4,0.00
2013-8-22,79.5,67.9,61.3,67.7,63.6,60.4,99,87,64,30.15,29.96,7,0,7,0.00
2013-8-23,72.3,65.4,59.7,67.2,63.4,59.1,99,93,82,30.07,29.97,9,0,9,0.01
2013-8-24,73.8,62.7,53.7,61.7,56.2,50.7,99,81,52,30.30,30.07,1,0,1,0.00
2013-8-25,72.0,58.4,47.8,59.4,53.5,46.9,98,85,61,30.38,30.27,5,0,5,0.00
2013-8-26,77.5,60.9,48.2,64.2,56.3,47.3,98,86,60,30.35,30.15,10,0,10,0.00
2013-8-27,76.9,65.7,58.0,67.3,62.5,57.0,98,90,69,30.17,30.01,8,0,8,0.00
2013-8-28,78.4,69.9,63.1,69.7,66.2,62.2,98,89,69,30.05,29.91,6,0,6,0.00
2013-8-29,83.2,71.5,63.7,69.2,66.3,62.5,96,85,60,29.96,29.88,11,1,11,0.00
2013-8-30,82.5,69.7,63.2,70.3,65.5,62.0,98,87,62,29.99,29.87,4,0,7,0.00
2013-8-31,76.7,68.4,63.2,69.9,65.9,62.2,98,92,79,29.92,29.83,8,0,8,0.06
2013-9-1,74.0,65.5,59.5,70.6,63.9,58.9,99,95,77,29.89,29.79,9,0,9,0.33
2013-9-2,76.2,67.2,61.4,68.8,64.4,60.8,99,91,75,29.91,29.80,7,0,7,0.00
2013-9-3,77.0,64.6,56.9,65.4,61.6,56.0,99,91,64,30.00,29.80,9,0,9,0.10
2013-9-4,79.9,61.6,49.1,64.8,56.9,48.6,99,86,58,30.15,29.99,4,0,6,0.00
2013-9-5,78.7,61.1,48.8,60.6,54.4,47.9,98,82,43,30.17,30.09,8,0,8,0.00
2013-9-6,80.1,61.3,49.2,63.0,55.6,48.4,99,84,46,30.19,30.08,6,0,6,0.00
2013-9-7,77.3,62.1,51.7,62.7,57.2,50.9,99,86,56,30.13,30.00,8,0,8,0.00
2013-9-8,77.9,66.2,57.9,64.9,61.7,56.7,98,87,59,30.01,29.92,7,0,7,0.00
2013-9-9,76.3,64.7,56.1,66.2,60.9,55.3,98,88,69,30.15,30.01,6,0,6,0.00
2013-9-10,78.3,65.2,56.6,69.0,62.1,55.8,98,91,65,30.23,30.14,6,0,6,0.31
2013-9-11,81.2,67.7,58.0,68.8,63.5,57.4,99,88,62,30.23,30.07,8,0,8,0.00
2013-9-12,76.2,66.6,59.9,68.0,63.7,58.8,99,91,71,30.08,29.85,9,0,9,0.31
2013-9-13,67.3,59.8,47.7,64.5,56.5,46.1,98,90,56,30.01,29.80,12,1,12,0.00
2013-9-14,70.5,52.9,39.6,56.9,47.8,38.8,98,85,57,30.14,29.93,6,0,6,0.00
2013-9-15,71.1,56.5,47.8,59.2,52.6,47.0,98,88,60,30.22,30.12,5,0,8,0.00
2013-9-16,70.2,58.8,49.0,60.8,55.4,48.5,99,89,66,30.18,30.11,8,0,11,0.00
2013-9-17,62.8,56.7,53.4,54.6,52.2,48.6,97,85,71,30.27,30.18,3,0,6,0.00
2013-9-18,66.1,56.8,50.3,58.6,53.5,48.4,97,89,75,30.25,30.15,2,0,7,0.04
2013-9-19,65.8,59.6,56.5,62.6,58.6,55.8,98,97,89,30.17,30.09,2,0,4,0.04
2013-9-20,77.7,62.7,54.5,64.8,59.4,53.9,99,90,64,30.10,29.90,3,0,7,0.00
2013-9-21,63.2,59.7,55.3,61.2,58.4,54.3,98,95,90,29.91,29.68,6,1,13,0.85
2013-9-22,65.3,54.8,46.1,54.6,50.9,45.6,99,87,65,29.94,29.74,6,1,13,0.00
2013-9-23,70.2,53.3,42.2,58.7,49.7,41.4,99,89,65,30.08,29.94,4,0,10,0.01
2013-9-24,74.0,56.0,45.1,61.5,52.2,44.6,99,88,61,30.09,29.92,4,0,6,0.00
2013-9-25,60.1,54.8,51.0,59.1,53.9,50.2,98,97,92,29.95,29.82,2,0,5,0.18
2013-9-26,68.4,56.6,47.9,57.8,53.3,47.1,99,90,58,30.06,29.88,2,0,5,0.00
2013-9-27,70.9,54.8,43.3,59.0,50.6,42.7,99,87,61,30.19,30.06,5,0,7,0.01
2013-9-28,65.4,54.4,46.8,56.8,50.5,45.8,98,88,62,30.23,30.13,5,0,8,0.00
2013-9-29,66.5,55.6,45.6,55.6,50.9,44.3,95,85,64,30.16,30.02,4,0,8,0.00
2013-9-30,64.9,56.0,50.5,57.3,53.1,49.7,97,90,71,30.09,30.00,2,0,5,0.00
2013-10-1,69.0,54.9,45.1,58.2,51.4,44.3,99,89,65,30.17,30.07,5,0,9,0.00
2013-10-2,75.5,56.0,44.3,59.7,51.8,43.5,99,87,56,30.22,30.11,4,0,6,0.00
2013-10-3,72.5,59.0,49.5,62.6,55.4,48.6,98,89,62,30.17,30.07,2,0,4,0.00
2013-10-4,76.8,61.1,51.1,64.1,56.8,50.3,99,87,61,30.18,30.08,4,0,5,0.00
2013-10-5,75.5,60.6,49.7,63.2,56.6,48.9,98,88,63,30.17,30.04,3,0,8,0.00
2013-10-6,71.4,62.6,54.7,61.2,58.0,54.1,99,86,67,30.06,29.86,8,1,13,0.00
2013-10-7,64.2,54.4,44.9,60.7,52.2,43.9,98,92,71,30.04,29.75,7,1,10,1.23
2013-10-8,61.2,48.1,37.4,48.5,43.1,36.9,98,84,58,30.24,30.04,6,1,8,0.00
2013-10-9,69.2,49.7,36.8,51.9,43.4,35.3,96,81,49,30.27,30.15,6,0,7,0.00
2013-10-10,61.1,48.9,36.4,50.7,44.0,35.5,98,85,57,30.17,30.07,4,0,12,0.00
2013-10-11,67.1,56.1,47.8,52.2,49.0,45.5,97,79,55,30.07,29.98,10,1,15,0.00
2013-10-12,61.1,56.6,52.2,56.8,53.4,50.0,97,89,80,30.10,29.98,5,0,8,0.00
2013-10-13,65.1,57.3,52.2,60.1,55.8,51.4,98,95,83,30.21,30.10,3,0,4,0.07
2013-10-14,63.4,56.7,51.0,56.9,54.1,50.1,98,91,77,30.23,30.13,3,0,5,0.00
2013-10-15,68.4,56.7,46.3,56.6,51.5,45.5,98,84,57,30.18,30.03,3,0,6,0.00
2013-10-16,67.1,55.8,46.2,56.6,51.3,45.1,96,85,66,30.06,29.93,4,0,6,0.00
2013-10-17,66.0,57.4,49.2,60.0,55.4,48.1,98,93,77,29.96,29.80,7,1,11,0.11
2013-10-18,63.8,51.6,44.9,49.5,46.1,42.1,98,83,57,30.02,29.90,4,1,6,0.00
2013-10-19,60.4,52.3,45.2,50.1,46.5,39.9,95,82,49,29.96,29.83,5,1,12,0.00
2013-10-20,59.9,44.4,31.8,41.7,35.1,20.6,96,73,33,30.13,29.92,4,1,8,0.00
2013-10-21,63.7,46.6,34.1,48.4,39.7,33.1,98,80,39,30.18,30.03,5,0,6,0.00
2013-10-22,60.8,50.9,43.8,46.1,44.4,41.8,97,80,55,30.04,29.81,5,1,12,0.00
2013-10-23,47.6,39.7,29.5,44.5,35.5,25.6,95,85,72,30.03,29.72,11,2,22,0.06
2013-10-24,42.4,35.2,28.8,33.3,30.0,25.6,92,82,69,30.23,30.03,8,1,16,0.00
2013-10-25,32.7,28.7,22.3,30.9,25.0,20.1,94,86,74,30.44,30.23,7,1,14,0.00
2013-10-26,53.8,34.1,18.5,36.9,23.3,16.6,93,70,29,30.42,30.17,6,1,12,0.05
2013-10-27,58.1,47.6,39.3,46.7,39.5,32.7,89,74,53,30.21,30.08,7,1,11,0.00
2013-10-28,56.3,51.4,47.4,49.8,48.1,45.9,95,89,73,30.26,30.13,4,0,5,0.01
2013-10-29,64.7,53.5,45.6,50.3,47.6,44.5,97,82,55,30.34,30.24,4,0,7,0.00
2013-10-30,67.5,56.5,49.9,54.3,50.8,47.7,97,82,61,30.27,30.15,6,1,16,0.01
2013-10-31,59.4,56.5,49.5,56.3,52.0,47.9,96,85,75,30.17,29.78,11,2,23,0.01
2013-11-1,67.5,57.6,47.1,56.5,49.7,41.1,96,77,40,29.77,29.63,15,2,26,0.13
2013-11-2,51.6,45.3,38.2,44.1,38.4,33.6,87,77,53,30.03,29.72,10,1,14,0.02
2013-11-3,46.6,37.9,29.4,34.5,31.8,27.4,93,79,53,30.42,30.02,9,2,14,0.00
2013-11-4,52.1,37.5,28.6,29.2,27.6,25.9,92,70,39,30.55,30.42,5,1,8,0.00
2013-11-5,57.2,42.3,29.9,48.7,26.5,6.9,93,62,14,30.55,30.40,10,1,13,0.00
2013-11-6,60.1,53.0,48.7,49.3,48.0,45.6,94,83,65,30.40,30.08,8,2,11,0.00
2013-11-7,52.1,43.7,31.3,51.0,41.0,27.4,97,90,80,30.16,29.98,10,2,19,0.15
2013-11-8,41.3,31.9,26.7,28.0,23.4,18.7,86,72,45,30.38,30.15,10,2,17,0.00
2013-11-9,55.0,37.7,25.5,26.6,21.6,14.9,85,57,21,30.41,30.27,6,1,13,0.00
2013-11-10,53.4,43.1,31.3,36.7,29.0,23.1,75,58,43,30.29,30.20,13,2,20,0.00
2013-11-11,61.7,37.9,23.4,27.3,20.3,4.5,83,57,14,30.36,30.20,3,1,6,0.00
2013-11-12,46.2,33.9,18.9,34.7,23.9,11.6,92,69,46,30.48,30.12,15,2,24,0.00
2013-11-13,33.3,22.3,16.0,17.6,14.8,12.8,87,73,49,30.65,30.47,8,2,13,0.00
2013-11-14,50.9,30.9,17.6,21.2,15.1,10.2,83,58,23,30.59,30.39,6,1,10,0.00
2013-11-15,53.8,34.0,26.0,45.9,24.9,16.2,97,69,52,30.41,30.24,5,1,9,0.28
2013-11-16,60.8,52.7,41.2,50.6,47.7,40.4,99,84,66,30.26,30.15,4,1,8,0.01
2013-11-17,57.4,54.3,51.6,55.2,52.0,49.1,96,92,83,30.17,29.85,9,2,14,0.16
2013-11-18,59.1,45.6,37.0,57.1,35.6,25.6,98,69,47,30.00,29.80,14,3,17,0.08
2013-11-19,44.4,34.7,28.2,26.2,23.8,20.3,79,65,41,30.28,30.00,7,2,18,0.00
2013-11-20,44.1,34.6,27.6,26.6,23.5,18.4,84,65,38,30.47,30.28,7,1,10,0.00
2013-11-21,56.1,45.7,29.8,49.4,41.8,26.0,94,86,71,30.50,30.38,7,2,13,0.00
2013-11-22,62.9,54.0,49.7,53.5,50.9,48.1,97,90,70,30.39,30.09,6,1,11,0.30
2013-11-23,50.3,38.6,23.9,49.5,35.4,16.3,98,88,69,30.21,30.06,8,2,18,0.10
2013-11-24,24.2,17.7,13.3,16.7,7.5,0.8,80,65,39,30.58,30.21,8,3,17,0.00
2013-11-25,39.1,27.2,13.5,32.9,9.3,-7.5,96,53,14,30.58,30.34,6,1,8,0.00
2013-11-26,45.8,40.7,34.1,44.7,39.7,33.0,98,96,94,30.34,29.67,9,2,16,2.46
2013-11-27,38.9,22.8,14.4,38.4,21.3,11.0,98,94,86,30.24,29.63,9,3,20,0.08
2013-11-28,39.7,26.2,9.4,25.7,19.9,7.3,93,79,40,30.57,30.24,7,1,11,0.02
2013-11-29,45.2,30.4,20.3,27.0,20.7,15.0,93,69,40,30.64,30.56,4,1,8,0.06
2013-11-30,47.6,30.9,21.3,30.3,23.4,18.4,89,76,44,30.62,30.38,5,1,6,0.05
2013-12-1,48.3,33.5,23.3,33.5,27.0,20.4,96,79,50,30.38,30.10,5,1,10,0.02
2013-12-2,49.9,36.1,25.5,39.7,31.8,23.5,94,85,64,30.10,29.86,4,1,6,0.00
2013-12-3,54.6,43.9,34.7,45.0,40.3,32.6,97,88,66,29.96,29.88,6,1,8,0.01
2013-12-4,59.3,48.4,37.3,50.1,45.4,36.5,98,90,71,30.07,29.94,6,1,10,0.00
2013-12-5,65.5,55.8,45.7,58.0,52.7,44.3,98,90,68,30.09,29.96,6,-2,9,0.09
2013-12-6,63.3,58.5,48.1,60.3,56.6,47.0,98,94,86,30.00,29.87,7,2,14,0.63
2013-12-7,49.2,38.3,35.1,48.7,37.2,34.0,98,96,90,30.37,29.97,5,1,9,0.03
2013-12-8,45.3,38.9,33.0,44.8,37.3,32.0,98,94,84,30.37,30.15,7,1,12,0.32
2013-12-9,50.4,45.1,35.6,49.9,44.2,34.8,98,97,93,30.16,30.00,9,-2,12,0.22
2013-12-10,46.4,31.8,20.4,44.5,29.8,16.1,98,92,82,30.34,29.90,9,2,21,0.55
2013-12-11,42.8,28.0,16.6,21.6,16.0,10.4,91,64,32,30.52,30.33,7,1,14,0.00
2013-12-12,27.8,22.7,17.2,19.4,14.9,10.2,86,73,49,30.46,30.37,6,2,13,0.00
2013-12-13,42.7,27.4,14.3,24.9,17.4,10.1,89,68,37,30.48,30.33,4,1,7,0.00
2013-12-14,42.8,38.1,32.8,42.1,33.0,18.0,98,83,47,30.35,29.77,10,2,15,0.42
2013-12-15,42.6,29.5,24.2,42.0,28.3,22.5,98,95,92,30.14,29.75,8,-1,20,0.10
2013-12-16,44.5,32.4,23.7,31.3,26.4,22.2,95,80,49,30.27,30.12,7,2,12,0.04
2013-12-17,47.8,37.0,27.3,34.6,29.3,18.7,95,75,51,30.20,29.97,10,2,21,0.02
2013-12-18,35.8,26.9,20.6,19.5,16.2,10.4,84,65,39,30.38,30.11,9,2,15,0.00
2013-12-19,59.8,38.6,22.9,32.7,23.7,15.4,87,60,23,30.41,30.25,7,1,10,0.00
2013-12-20,60.2,45.4,30.8,40.5,31.0,20.8,78,59,33,30.25,30.11,12,1,16,0.00
2013-12-21,60.7,53.8,42.6,57.4,50.9,36.7,96,90,78,30.13,29.91,12,3,22,0.09
2013-12-22,60.0,54.9,50.2,57.9,53.3,48.9,98,95,84,30.03,29.88,12,2,20,1.88
2013-12-23,51.2,41.0,27.2,50.2,40.1,25.4,98,97,93,30.21,29.95,5,2,12,0.45
2013-12-24,27.2,21.8,14.1,25.7,18.2,10.9,94,86,73,30.48,30.20,9,2,19,0.00
2013-12-25,38.2,22.7,12.8,20.3,13.5,6.5,91,71,34,30.56,30.41,4,1,7,0.00
2013-12-26,37.4,27.3,18.4,25.1,20.7,15.5,91,77,57,30.45,30.35,6,-2,12,0.00
2013-12-27,44.2,28.1,18.3,25.3,19.4,16.0,92,73,33,30.54,30.43,4,1,7,0.00
2013-12-28,51.7,34.4,19.4,39.1,23.5,6.3,96,71,16,30.50,30.14,7,1,15,0.18
2013-12-29,46.0,39.7,34.5,44.6,38.4,32.3,98,95,91,30.14,29.80,10,2,17,0.25
2013-12-30,36.4,32.8,29.2,34.0,31.6,27.9,97,95,90,30.19,29.98,6,1,13,0.04
2013-12-31,31.5,26.0,20.1,27.9,21.2,16.5,95,82,62,30.45,30.17,7,2,16,0.00
2014-1-1,42.3,28.4,19.6,25.1,21.3,17.3,91,76,45,30.45,30.18,5,1,7,0.00
2014-1-2,43.2,30.4,12.6,41.4,27.7,10.5,97,90,80,30.18,29.70,11,2,22,0.01